createdAt,value
2018-12-09T00:02:05.398Z,8.24
2018-12-09T00:07:08.740Z,8.21
2018-12-09T00:12:11.978Z,8.29
2018-12-09T00:17:15.249Z,8.28
2018-12-09T00:22:18.406Z,8.34
2018-12-09T00:27:21.754Z,8.33
2018-12-09T00:32:25.078Z,8.38
2018-12-09T00:37:28.370Z,8.47
2018-12-09T00:42:31.603Z,8.52
2018-12-09T00:47:34.893Z,8.60
2018-12-09T00:52:38.073Z,8.64
2018-12-09T00:57:41.414Z,8.68
2018-12-09T01:02:44.681Z,8.74
2018-12-09T01:07:47.957Z,8.78
2018-12-09T01:12:51.157Z,8.83
2018-12-09T01:17:54.405Z,8.90
2018-12-09T01:22:57.790Z,8.97
2018-12-09T01:28:01.143Z,9.00
2018-12-09T01:33:04.477Z,9.02
2018-12-09T01:38:07.667Z,9.04
2018-12-09T01:43:10.952Z,9.05
2018-12-09T01:48:14.389Z,9.10
2018-12-09T01:53:28.926Z,9.14
2018-12-09T01:58:32.262Z,9.17
2018-12-09T02:03:35.760Z,9.19
2018-12-09T02:08:38.996Z,9.19
2018-12-09T02:13:42.251Z,9.27
2018-12-09T02:18:45.498Z,9.27
2018-12-09T02:23:48.750Z,9.28
2018-12-09T02:28:51.996Z,9.26
2018-12-09T02:33:55.313Z,9.19
2018-12-09T02:38:58.542Z,9.16
2018-12-09T02:44:01.830Z,9.11
2018-12-09T02:49:05.150Z,9.08
2018-12-09T02:54:08.498Z,9.06
2018-12-09T02:59:12.266Z,9.14
2018-12-09T03:04:15.489Z,9.19
2018-12-09T03:09:18.848Z,9.26
2018-12-09T03:14:22.045Z,9.28
2018-12-09T03:19:25.294Z,9.33
2018-12-09T03:24:28.691Z,9.34
2018-12-09T03:29:32.023Z,9.35
2018-12-09T03:34:35.410Z,9.36
2018-12-09T03:39:38.629Z,9.34
2018-12-09T03:44:41.902Z,9.31
2018-12-09T03:49:45.154Z,8.99
2018-12-09T03:54:48.427Z,8.43
2018-12-09T03:59:51.857Z,8.00
2018-12-09T04:04:58.433Z,7.31
2018-12-09T04:10:03.497Z,7.19
2018-12-09T04:15:10.682Z,7.17
2018-12-09T04:20:23.802Z,7.20
2018-12-09T04:25:30.994Z,7.22
2018-12-09T04:30:39.878Z,7.07
2018-12-09T04:35:49.334Z,7.09
2018-12-09T04:40:58.651Z,7.17
2018-12-09T04:46:05.707Z,7.28
2018-12-09T04:51:12.588Z,7.29
2018-12-09T04:56:19.746Z,7.32
2018-12-09T05:01:29.022Z,7.30
2018-12-09T05:06:38.255Z,7.28
2018-12-09T05:11:47.743Z,7.28
2018-12-09T05:16:53.950Z,7.32
2018-12-09T05:22:03.138Z,7.34
2018-12-09T05:27:12.839Z,7.32
2018-12-09T05:32:21.758Z,7.29
2018-12-09T05:37:31.238Z,7.30
2018-12-09T05:42:38.385Z,7.26
2018-12-09T05:47:47.687Z,7.14
2018-12-09T05:52:54.735Z,6.83
2018-12-09T05:58:03.631Z,6.75
2018-12-09T06:03:12.394Z,6.76
2018-12-09T06:08:21.966Z,6.76
2018-12-09T06:13:30.783Z,6.84
2018-12-09T06:18:40.266Z,6.86
2018-12-09T06:23:49.947Z,6.94
2018-12-09T06:28:59.182Z,7.01
2018-12-09T06:34:08.006Z,7.14
2018-12-09T06:39:15.030Z,7.12
2018-12-09T06:44:24.091Z,7.13
2018-12-09T06:49:30.845Z,7.15
2018-12-09T06:54:39.822Z,7.17
2018-12-09T06:59:48.449Z,7.17
2018-12-09T07:04:57.509Z,7.22
2018-12-09T07:10:08.179Z,7.20
2018-12-09T07:15:17.174Z,7.19
2018-12-09T07:20:26.650Z,7.22
2018-12-09T07:25:35.493Z,7.30
2018-12-09T07:30:44.565Z,7.35
2018-12-09T07:35:51.602Z,7.42
2018-12-09T07:40:59.450Z,7.45
2018-12-09T07:46:08.618Z,7.49
2018-12-09T07:56:17.463Z,7.68
2018-12-09T08:01:20.785Z,7.74
2018-12-09T08:06:24.014Z,7.77
2018-12-09T08:11:27.217Z,7.85
2018-12-09T08:16:30.484Z,7.89
2018-12-09T08:21:33.780Z,8.00
2018-12-09T08:26:37.034Z,8.04
2018-12-09T08:31:40.258Z,8.10
2018-12-09T08:36:43.674Z,8.13
2018-12-09T08:41:47.086Z,8.13
2018-12-09T08:46:50.538Z,8.22
2018-12-09T08:51:53.896Z,8.22
2018-12-09T08:56:57.126Z,8.27
2018-12-09T09:02:00.486Z,8.33
2018-12-09T09:07:03.733Z,8.43
2018-12-09T09:12:07.000Z,8.47
2018-12-09T09:17:10.318Z,8.50
2018-12-09T09:22:13.507Z,8.48
2018-12-09T09:27:16.755Z,8.50
2018-12-09T09:32:19.922Z,8.43
2018-12-09T09:37:23.244Z,8.46
2018-12-09T09:42:26.427Z,8.52
2018-12-09T09:47:29.658Z,8.58
2018-12-09T09:52:32.878Z,8.53
2018-12-09T09:57:36.265Z,8.58
2018-12-09T10:02:39.688Z,8.58
2018-12-09T10:07:44.819Z,8.62
2018-12-09T10:12:51.156Z,8.65
2018-12-09T10:17:54.641Z,8.72
2018-12-09T10:22:59.754Z,8.65
2018-12-09T10:28:03.030Z,8.68
2018-12-09T10:33:07.464Z,8.75
2018-12-09T10:38:33.240Z,8.80
2018-12-09T10:43:36.662Z,8.76
2018-12-09T10:48:46.760Z,8.74
2018-12-09T10:53:50.341Z,8.77
2018-12-09T10:58:53.613Z,8.79
2018-12-09T11:03:57.403Z,8.81
2018-12-09T11:36:42.467Z,8.81
2018-12-09T11:41:45.726Z,8.81
2018-12-09T11:46:49.715Z,8.81
2018-12-09T11:51:52.921Z,8.82
2018-12-09T11:56:56.230Z,8.80
2018-12-09T12:01:59.668Z,8.79
2018-12-09T12:07:02.918Z,8.81
2018-12-09T12:12:06.262Z,8.89
2018-12-09T12:17:09.574Z,8.91
2018-12-09T12:22:12.942Z,8.90
2018-12-09T12:27:16.260Z,8.90
2018-12-09T12:32:19.434Z,8.90
2018-12-09T12:37:22.877Z,8.91
2018-12-09T12:42:26.206Z,8.91
2018-12-09T12:47:29.643Z,8.76
2018-12-09T12:52:32.901Z,8.05
2018-12-09T12:57:36.319Z,7.76
2018-12-09T13:02:39.774Z,7.75
2018-12-09T13:07:43.098Z,7.97
2018-12-09T13:12:46.253Z,8.06
2018-12-09T13:17:49.438Z,8.21
2018-12-09T13:22:52.846Z,8.42
2018-12-09T13:27:56.182Z,8.63
2018-12-09T13:32:59.399Z,8.55
2018-12-09T13:38:02.676Z,8.51
2018-12-09T13:43:05.835Z,8.48
2018-12-09T13:48:09.141Z,8.42
2018-12-09T13:53:12.311Z,8.41
2018-12-09T13:58:15.553Z,8.39
2018-12-09T14:03:18.914Z,8.42
2018-12-09T14:08:22.186Z,8.37
2018-12-09T14:13:25.416Z,8.42
2018-12-09T14:18:28.582Z,8.42
2018-12-09T14:23:31.967Z,8.41
2018-12-09T14:28:35.338Z,8.38
2018-12-09T14:33:38.768Z,8.35
2018-12-09T14:38:42.168Z,8.30
2018-12-09T14:43:45.427Z,8.29
2018-12-09T14:48:48.819Z,8.27
2018-12-09T14:54:10.674Z,8.23
2018-12-09T14:59:13.973Z,8.23
2018-12-09T15:04:23.210Z,8.23
2018-12-09T15:15:03.938Z,8.18
2018-12-09T15:20:23.371Z,8.16
2018-12-09T15:25:32.420Z,8.12
2018-12-09T15:30:41.395Z,8.09
2018-12-09T15:35:44.826Z,8.06
2018-12-09T15:40:48.223Z,8.02
2018-12-09T15:45:51.554Z,7.96
2018-12-09T15:50:54.926Z,7.93
2018-12-09T15:55:58.295Z,7.78
2018-12-09T16:01:01.490Z,7.71
2018-12-09T16:06:04.750Z,7.65
2018-12-09T16:11:08.083Z,7.62
2018-12-09T16:16:11.414Z,7.58
2018-12-09T16:21:14.647Z,7.47
2018-12-09T16:26:17.941Z,7.53
2018-12-09T16:31:21.147Z,7.47
2018-12-09T16:36:24.616Z,7.44
2018-12-09T16:41:27.830Z,7.41
2018-12-09T16:46:31.015Z,7.37
2018-12-09T16:51:34.222Z,7.38
2018-12-09T16:56:37.410Z,7.37
2018-12-09T17:01:40.658Z,7.23
2018-12-09T17:06:43.878Z,7.28
2018-12-09T17:11:47.085Z,7.29
2018-12-09T17:16:50.313Z,7.27
2018-12-09T17:21:53.545Z,7.28
2018-12-09T17:26:56.727Z,7.31
2018-12-09T17:31:59.971Z,7.28
2018-12-09T17:37:03.340Z,7.29
2018-12-09T17:42:06.612Z,7.28
2018-12-09T17:47:09.898Z,7.30
2018-12-09T17:52:13.123Z,7.32
2018-12-09T17:57:16.283Z,7.31
2018-12-09T18:02:19.434Z,7.31
2018-12-09T18:07:22.741Z,7.30
2018-12-09T18:12:25.977Z,7.31
2018-12-09T18:51:13.513Z,7.27
2018-12-09T18:56:16.811Z,7.28
2018-12-09T19:01:20.087Z,7.30
2018-12-09T19:06:23.297Z,7.24
2018-12-09T19:11:26.565Z,7.23
2018-12-09T19:16:29.881Z,7.20
2018-12-09T19:21:33.119Z,7.15
2018-12-09T19:26:36.375Z,7.18
2018-12-09T19:31:39.574Z,7.18
2018-12-09T19:36:42.766Z,7.21
2018-12-09T19:41:45.934Z,7.16
2018-12-09T19:46:49.198Z,7.19
2018-12-09T19:51:52.410Z,7.27
2018-12-09T19:56:55.672Z,7.27
2018-12-09T20:01:59.052Z,7.20
2018-12-09T20:07:02.233Z,7.23
2018-12-09T20:12:05.390Z,7.27
2018-12-09T20:17:08.617Z,7.26
2018-12-09T20:22:11.794Z,7.27
2018-12-09T20:27:15.110Z,7.28
2018-12-09T20:32:18.298Z,7.23
2018-12-09T20:37:25.953Z,7.27
2018-12-09T20:42:31.220Z,7.27
2018-12-09T20:53:06.026Z,7.26
2018-12-09T20:58:09.635Z,7.33
2018-12-09T21:08:45.331Z,7.30
2018-12-09T21:13:48.619Z,7.18
2018-12-09T21:18:51.794Z,7.11
2018-12-09T21:23:55.092Z,7.07
2018-12-09T21:28:58.352Z,6.99
2018-12-09T21:34:01.543Z,7.02
2018-12-09T21:39:06.373Z,6.98
2018-12-09T21:44:09.589Z,7.01
2018-12-09T21:49:12.773Z,6.96
2018-12-09T21:54:16.058Z,6.89
2018-12-09T21:59:19.273Z,6.88
2018-12-09T22:04:22.454Z,6.85
2018-12-09T22:09:25.622Z,6.82
2018-12-09T22:14:29.022Z,6.82
2018-12-09T22:19:32.255Z,6.77
2018-12-09T22:24:35.478Z,6.79
2018-12-09T22:29:38.642Z,6.83
2018-12-09T22:34:41.898Z,6.92
2018-12-09T22:39:45.075Z,6.90
2018-12-09T22:44:48.382Z,6.90
2018-12-09T22:49:51.607Z,6.86
2018-12-09T22:54:54.773Z,6.84
2018-12-09T22:59:58.035Z,6.85
2018-12-09T23:05:01.330Z,6.91
2018-12-09T23:10:04.765Z,6.88
2018-12-09T23:15:07.971Z,6.88
2018-12-09T23:20:11.242Z,6.91
2018-12-09T23:25:15.719Z,6.90
2018-12-09T23:30:19.832Z,6.91
2018-12-09T23:35:23.062Z,6.87
2018-12-09T23:40:26.379Z,6.86
2018-12-09T23:45:29.567Z,6.90
2018-12-09T23:50:32.939Z,6.81
2018-12-09T23:55:36.144Z,6.81
